Date,TemperatureHighF,TemperatureAvgF,TemperatureLowF,DewpointHighF,DewpointAvgF,DewpointLowF,HumidityHigh,HumidityAvg,HumidityLow,PressureMaxIn,PressureMinIn,WindSpeedMaxMPH,WindSpeedAvgMPH,GustSpeedMaxMPH,PrecipitationSumIn
2013-1-1,76,62,51,62,56,50,98,84,53,30.17,29.98,11,2,18,0.00
2013-1-2,81,66,55,67,61,54,98,85,56,30.01,29.91,10,2,14,0.00
2013-1-3,74,64,58,67,61,56,98,93,76,30.12,29.97,9,2,16,0.05
2013-1-4,60,58,55,59,56,54,98,98,98,30.22,30.09,9,3,16,0.13
2013-1-5,77,63,54,64,58,52,98,84,62,30.25,30.13,8,2,12,0.00
2013-1-6,81,68,60,68,63,59,98,86,60,30.16,29.99,11,2,18,0.01
2013-1-7,74,64,56,63,59,52,98,85,56,30.17,30.06,10,3,16,0.00
2013-1-8,83,71,62,72,66,61,98,88,61,30.17,30.07,5,1,8,0.00
2013-1-9,79,71,64,76,69,63,98,96,84,30.25,30.14,7,1,13,0.17
2013-1-10,83,70,62,73,65,61,98,87,52,30.26,30.17,7,1,14,0.01
2013-1-11,84,70,59,72,64,58,98,85,50,30.21,30.10,6,1,12,0.00
2013-1-12,84,69,57,72,62,56,98,83,47,30.15,30.04,6,1,11,0.00
2013-1-13,84,69,56,69,62,55,98,83,47,30.11,30.01,7,1,14,0.00
2013-1-14,81,68,58,69,63,57,98,85,56,30.14,30.06,7,1,11,0.00
2013-1-15,82,69,59,71,64,58,98,87,56,30.10,29.99,5,1,11,0.00
2013-1-16,84,69,58,70,61,57,98,81,42,30.05,29.94,8,1,14,0.00
2013-1-17,80,64,54,70,58,44,98,83,62,30.04,29.88,17,5,31,0.00
2013-1-18,65,54,41,63,48,34,96,79,69,30.22,30.04,10,3,19,0.03
2013-1-19,78,64,56,62,58,53,93,81,54,30.23,30.09,8,2,14,0.00
2013-1-20,74,63,57,64,59,53,98,87,66,30.12,30.00,10,2,14,0.00
2013-1-21,75,64,56,63,58,55,97,84,62,30.04,29.93,5,1,7,0.01
2013-1-22,65,56,44,57,45,37,97,68,43,30.22,30.00,11,2,19,0.00
2013-1-23,68,52,38,45,39,30,98,69,26,30.31,30.21,8,1,11,0.00
2013-1-24,73,56,41,52,45,40,98,73,39,30.27,30.16,10,2,14,0.00
2013-1-25,76,60,47,58,50,46,98,75,39,30.25,30.11,8,1,13,0.00
2013-1-26,76,59,44,58,50,43,98,79,43,30.22,30.10,8,1,12,0.00
2013-1-27,82,64,49,64,56,48,98,82,44,30.26,30.17,5,1,13,0.00
2013-1-28,80,68,58,66,63,57,98,84,58,30.28,30.19,7,1,16,0.00
2013-1-29,85,71,60,71,64,59,98,83,50,30.21,30.05,9,1,13,0.00
2013-1-30,83,72,62,66,64,61,98,76,49,30.06,29.82,17,5,29,0.00
2013-1-31,70,59,48,66,42,26,97,60,27,30.17,29.83,14,4,24,0.05
2013-2-1,68,51,35,39,31,19,92,53,16,30.30,30.17,10,2,13,0.00
2013-2-2,72,53,36,47,39,33,98,68,25,30.26,30.09,7,1,12,0.00
2013-2-3,71,55,39,50,42,34,98,65,38,30.14,29.99,14,3,18,0.00
2013-2-4,72,54,38,49,39,31,98,66,24,30.09,29.98,7,1,10,0.00
2013-2-5,76,57,39,54,46,38,98,73,38,30.05,29.93,11,1,16,0.00
2013-2-6,79,66,55,64,59,52,97,78,50,30.06,29.96,5,0,11,0.00
2013-2-7,83,72,62,64,62,58,95,72,48,30.02,29.81,13,3,20,0.00
2013-2-8,80,70,59,65,59,53,92,70,41,30.02,29.81,12,4,21,0.00
2013-2-9,78,62,52,58,54,51,98,79,44,30.15,30.01,9,2,16,0.00
2013-2-10,80,64,52,60,56,51,98,78,43,30.22,30.12,9,2,20,0.00
2013-2-11,83,69,54,64,59,53,98,76,44,30.16,30.01,12,2,18,0.00
2013-2-12,84,72,59,68,63,58,98,75,45,30.04,29.86,12,4,19,0.00
2013-2-13,87,73,64,70,66,60,97,83,46,29.90,29.74,16,6,30,0.03
2013-2-14,67,63,57,63,60,56,98,91,74,29.98,29.85,9,1,13,0.04
2013-2-15,70,58,52,58,54,51,98,87,56,30.02,29.89,8,2,12,0.02
2013-2-16,69,57,48,53,43,23,98,65,28,30.06,29.83,16,4,32,0.00
2013-2-17,55,43,32,29,19,8,87,41,17,30.29,30.06,14,3,28,0.00
2013-2-18,71,48,29,47,37,27,98,69,34,30.32,30.16,7,1,16,0.00
2013-2-19,80,62,44,57,50,43,98,70,35,30.17,29.99,14,3,22,0.00
2013-2-20,77,64,55,60,56,52,98,77,52,30.08,29.96,7,2,12,0.01
2013-2-21,85,69,55,66,59,52,96,74,39,30.06,29.93,8,1,13,0.00
2013-2-22,87,72,60,70,65,59,98,81,42,30.03,29.93,11,2,18,0.00
2013-2-23,88,77,69,70,67,62,96,74,42,29.95,29.80,14,5,25,0.00
2013-2-24,76,70,64,73,68,63,98,95,80,29.91,29.80,9,2,14,0.94
2013-2-25,86,72,61,73,65,59,98,84,43,29.88,29.70,13,2,24,0.20
2013-2-26,78,71,65,73,68,60,98,89,74,29.80,29.68,14,5,25,0.11
2013-2-27,75,66,57,63,56,49,93,71,45,29.91,29.80,11,3,18,0.01
2013-2-28,74,61,47,53,48,38,98,66,30,29.94,29.81,15,3,22,0.00
2013-3-1,64,56,49,48,40,27,86,57,28,29.94,29.84,15,4,20,0.00
2013-3-2,61,51,41,37,32,22,76,49,24,29.97,29.88,18,5,33,0.00
2013-3-3,54,45,37,32,30,28,75,58,39,30.10,29.94,16,4,27,0.00
2013-3-4,65,47,31,38,29,19,96,57,20,30.18,30.06,10,1,16,0.00
2013-3-5,77,59,38,56,40,29,98,58,25,30.13,29.95,12,4,20,0.00
2013-3-6,69,60,49,61,39,23,94,52,20,30.07,29.86,18,7,27,0.01
2013-3-7,67,52,40,47,38,31,95,61,35,30.16,30.06,9,2,14,0.00
2013-3-8,75,55,39,52,42,31,98,70,21,30.17,30.06,10,1,13,0.00
2013-3-9,78,58,43,53,48,42,98,73,33,30.17,30.09,6,1,13,0.00
2013-3-10,81,63,50,59,53,49,98,74,36,30.13,30.03,8,2,18,0.00
2013-3-11,80,65,50,61,56,49,98,75,43,30.07,29.86,10,2,16,0.01
2013-3-12,71,66,58,68,63,56,98,88,77,29.95,29.81,11,4,19,0.22
2013-3-13,74,60,48,57,42,27,96,58,18,30.11,29.95,11,3,17,0.00
2013-3-14,67,53,42,45,35,22,91,55,20,30.21,30.09,11,3,18,0.00
2013-3-15,73,53,36,47,36,27,98,62,22,30.24,30.09,10,1,16,0.00
2013-3-16,80,60,42,49,41,36,98,58,21,30.14,29.98,11,2,18,0.00
2013-3-17,79,62,44,59,50,41,98,67,36,30.09,29.94,12,2,19,0.00
2013-3-18,80,71,61,66,62,57,93,74,53,30.01,29.85,13,3,19,0.01
2013-3-19,87,73,62,65,61,53,98,71,32,29.96,29.82,7,2,13,0.02
2013-3-20,76,68,60,69,63,58,98,85,64,29.91,29.73,12,2,18,0.47
2013-3-21,71,58,48,58,41,25,97,61,20,29.91,29.80,11,2,17,0.00
2013-3-22,80,60,43,62,49,39,98,75,27,29.96,29.84,10,1,17,0.07
2013-3-23,87,73,62,72,66,61,98,82,51,29.93,29.69,13,3,24,0.04
2013-3-24,83,72,65,73,69,63,98,89,64,29.80,29.56,26,5,40,1.06
2013-3-25,73,66,55,68,46,23,94,56,17,29.97,29.65,15,5,24,0.00
2013-3-26,61,54,46,38,27,16,62,38,19,30.17,29.96,16,5,29,0.00
2013-3-27,63,50,37,41,32,24,88,53,25,30.25,30.14,11,2,17,0.00
2013-3-28,72,53,36,44,36,24,98,63,17,30.25,30.12,9,1,14,0.00
2013-3-29,77,57,41,51,39,28,98,61,19,30.27,30.14,7,1,11,0.00
2013-3-30,79,62,44,54,47,40,98,65,26,30.21,30.06,10,2,18,0.00
2013-3-31,82,69,58,57,53,47,88,60,30,30.12,29.93,13,4,21,0.00
2013-4-1,86,72,59,66,60,55,97,69,38,29.97,29.85,13,4,24,0.00
2013-4-2,86,71,59,64,58,48,98,68,29,30.02,29.93,7,2,13,0.00
2013-4-3,87,70,58,69,62,56,98,79,45,30.02,29.90,7,1,17,0.02
2013-4-4,75,70,65,70,67,62,98,91,76,29.97,29.79,16,4,26,0.10
2013-4-5,77,68,57,69,63,55,97,85,57,29.93,29.74,12,4,18,0.09
2013-4-6,80,65,55,60,56,52,97,77,47,30.08,29.92,11,3,17,0.00
2013-4-7,83,68,56,65,59,55,98,77,43,30.10,29.99,6,1,13,0.00
2013-4-8,88,69,55,67,59,54,98,75,39,30.09,30.00,7,1,13,0.00
2013-4-9,87,71,60,70,61,53,98,75,40,30.12,30.01,8,1,16,0.00
2013-4-10,89,72,57,71,64,56,98,80,45,30.07,29.93,6,1,16,0.00
2013-4-11,90,77,69,76,70,66,98,82,47,29.94,29.77,10,2,16,0.05
2013-4-12,86,78,72,74,71,67,96,81,57,29.84,29.74,21,5,31,0.01
2013-4-13,86,75,65,71,66,59,98,76,50,29.93,29.81,7,1,11,0.00
2013-4-14,89,75,65,74,68,61,98,81,56,29.93,29.75,13,1,22,1.06
2013-4-15,91,74,65,68,65,62,98,75,42,30.01,29.84,7,1,11,0.00
2013-4-16,90,76,67,73,68,65,98,80,52,30.09,29.99,6,1,14,0.00
2013-4-17,86,73,64,73,66,63,98,81,48,30.09,29.99,6,1,15,0.00
2013-4-18,89,75,63,72,66,62,98,77,43,30.01,29.89,7,1,16,0.00
2013-4-19,92,79,70,74,70,64,98,78,42,29.96,29.83,13,3,24,0.01
2013-4-20,75,68,60,72,63,56,93,85,67,30.09,29.88,11,3,16,0.01
2013-4-21,81,70,61,75,67,57,98,91,69,30.08,29.95,7,2,14,0.80
2013-4-22,81,70,65,71,67,64,98,93,65,30.01,29.93,13,3,18,0.61
2013-4-23,83,70,61,68,63,58,98,80,44,30.06,29.95,9,2,14,0.00
2013-4-24,87,70,55,67,60,54,98,75,37,30.09,30.00,8,1,11,0.00
2013-4-25,89,73,59,69,61,52,98,72,32,30.14,30.04,6,1,12,0.00
2013-4-26,88,74,62,69,64,61,98,76,42,30.18,30.09,9,1,13,0.00
2013-4-27,88,74,62,71,65,61,98,77,44,30.17,30.05,6,1,13,0.00
2013-4-28,85,73,63,70,64,61,98,78,44,30.08,29.94,8,1,17,0.00
2013-4-29,87,74,64,72,65,58,98,76,39,29.97,29.83,12,2,20,0.02
2013-4-30,89,74,65,71,67,62,98,84,46,29.95,29.85,7,1,13,0.26
2013-5-1,78,71,67,74,70,66,98,95,80,29.96,29.88,4,0,8,0.04
2013-5-2,71,69,67,70,68,66,98,98,98,29.90,29.85,5,0,11,0.04
2013-5-17,82,73,71,68,67,65,87,83,57,30.03,29.99,3,1,11,0.00
2013-5-18,95,78,65,73,68,58,98,75,33,30.05,29.94,7,1,17,0.00
2013-5-19,91,78,71,73,70,67,97,80,47,30.03,29.94,12,2,21,0.00
2013-5-20,94,77,69,74,70,63,98,82,38,30.02,29.92,9,1,16,0.02
2013-5-21,84,73,68,73,70,67,98,90,62,29.98,29.88,7,1,13,0.02
2013-5-22,88,75,66,74,69,65,98,84,50,29.91,29.84,6,1,13,0.01
2013-5-23,93,77,67,74,69,65,98,81,41,29.93,29.84,11,1,19,0.01
2013-5-24,95,79,67,75,66,56,98,71,29,30.02,29.89,11,2,17,0.01
2013-5-25,89,75,64,69,64,58,98,71,38,30.13,30.01,6,1,16,0.00
2013-5-26,89,72,57,64,59,53,98,69,30,30.16,30.09,6,1,11,0.00
2013-5-27,90,74,61,68,62,59,98,72,37,30.12,30.04,7,1,14,0.00
2013-5-28,93,77,65,72,68,64,98,77,46,30.08,30.01,8,2,18,0.00
2013-5-29,91,78,70,76,72,69,98,83,50,30.07,29.99,8,2,17,0.00
2013-5-30,90,78,71,76,72,68,98,81,50,30.06,29.99,12,2,27,0.06
2013-5-31,91,78,70,76,71,68,98,81,52,30.05,29.97,9,2,18,0.06
2013-6-1,92,80,71,76,73,70,98,83,54,30.01,29.91,10,2,20,0.06
2013-6-2,94,79,73,78,74,70,98,86,48,29.95,29.81,9,1,13,0.11
2013-6-3,91,79,73,77,74,70,98,86,54,29.93,29.81,13,2,21,0.28
2013-6-4,88,78,72,75,72,68,98,86,56,29.98,29.87,13,2,20,0.02
2013-6-5,88,75,72,77,73,71,98,94,63,29.96,29.85,10,1,19,1.90
2013-6-6,79,75,73,78,73,69,98,96,79,29.85,29.60,15,4,28,2.37
2013-6-7,89,80,73,74,72,68,98,79,59,29.88,29.69,11,5,22,0.00
2013-6-8,93,78,72,76,73,70,98,86,52,30.03,29.88,14,1,28,0.75
2013-6-9,92,78,70,80,72,69,98,86,56,30.05,29.96,9,1,18,0.04
2013-6-10,93,80,73,79,74,71,98,84,54,30.04,29.94,8,1,14,0.00
2013-6-11,94,78,72,78,74,71,98,89,50,30.02,29.94,12,1,17,0.07
2013-6-12,95,81,70,76,72,68,98,78,43,30.02,29.92,7,1,14,0.00
2013-6-13,95,82,73,78,73,69,98,78,46,29.97,29.82,12,2,22,0.07
2013-6-14,93,83,74,75,72,63,98,72,38,29.86,29.76,15,4,21,0.00
2013-6-15,92,82,77,79,75,71,95,79,57,30.01,29.84,6,2,17,0.00
2013-6-16,91,81,77,82,76,72,98,85,60,30.03,29.96,7,1,16,0.47
2013-6-17,91,80,75,79,77,73,98,90,64,30.02,29.90,12,1,17,0.70
2013-6-18,92,80,72,79,74,70,98,84,52,30.01,29.88,15,2,20,0.15
2013-6-19,94,82,72,77,73,68,98,78,46,29.97,29.87,13,2,24,0.00
2013-6-20,94,80,73,77,74,68,98,84,56,30.03,29.94,9,1,19,0.06
2013-6-21,91,78,71,77,73,70,98,88,55,30.05,29.97,11,1,19,0.42
2013-6-22,93,83,71,79,72,65,98,73,41,30.05,29.98,7,1,13,0.00
2013-6-23,89,78,71,78,74,70,98,87,58,30.09,30.01,5,1,12,0.00
2013-6-24,92,80,72,78,73,71,98,82,53,30.12,30.02,6,1,15,0.01
2013-6-25,91,80,71,80,73,69,98,82,56,30.10,29.98,5,1,13,0.06
2013-6-26,93,80,73,78,74,70,98,84,54,30.01,29.94,11,2,19,0.01
2013-6-27,93,80,70,81,72,69,98,80,47,29.98,29.86,9,1,14,0.03
2013-6-28,94,79,73,77,74,68,98,85,50,29.90,29.46,19,3,36,0.57
2013-6-29,89,80,74,77,74,70,98,83,58,29.81,29.73,13,4,21,0.01
2013-6-30,92,77,74,78,74,72,98,91,56,29.83,29.75,19,3,30,0.57
2013-7-1,86,77,73,75,73,69,98,90,66,29.96,29.80,16,4,27,0.38
2013-7-2,86,76,73,79,74,72,98,96,75,30.04,29.91,11,1,21,0.92
2013-7-3,90,77,73,79,75,72,98,93,67,30.07,29.99,12,1,22,0.43
2013-7-4,91,79,72,79,74,68,98,85,59,30.09,30.01,10,2,21,0.00
2013-7-5,92,81,74,86,75,71,98,83,55,30.10,30.00,10,2,20,0.38
2013-7-6,92,82,73,77,74,72,98,80,55,30.06,29.99,8,2,19,0.00
2013-7-7,93,82,73,77,74,70,98,79,51,30.07,29.98,8,1,17,0.00
2013-7-8,94,82,74,78,74,72,98,80,54,30.10,30.01,6,1,16,0.00
2013-7-9,94,81,71,77,72,68,98,77,46,30.10,30.00,5,1,17,0.00
2013-7-10,92,80,72,78,73,69,98,80,49,30.03,29.91,6,1,12,0.00
2013-7-11,94,80,73,76,72,67,98,79,44,29.97,29.85,22,2,31,0.01
2013-7-12,93,79,72,78,74,71,98,86,51,29.88,29.82,12,2,18,0.12
2013-7-13,93,79,72,76,73,70,98,84,53,29.94,29.84,9,1,17,0.00
2013-7-14,92,78,72,78,73,71,98,88,56,30.04,29.91,8,1,20,0.01
2013-7-15,91,79,69,78,73,68,98,84,59,30.06,29.96,5,1,17,0.02
2013-7-16,92,78,72,81,74,71,98,91,55,30.09,30.04,9,1,19,0.82
2013-7-17,92,79,73,79,75,72,98,89,62,30.10,30.02,7,1,17,0.02
2013-7-18,88,78,72,78,73,70,98,86,60,30.06,29.98,12,1,18,0.01
2013-7-19,91,78,72,78,73,71,98,87,58,30.07,29.96,10,1,16,1.93
2013-7-20,92,78,72,80,74,71,98,89,57,30.04,29.94,8,1,20,0.03
2013-7-21,93,80,72,79,74,69,98,85,54,30.05,29.94,15,2,21,0.00
2013-7-22,94,80,75,77,74,72,98,86,49,30.05,29.99,14,3,19,0.18
2013-7-23,88,79,73,78,74,71,98,86,61,30.02,29.87,11,3,20,0.01
2013-7-24,87,80,75,78,74,69,97,82,61,29.93,29.80,13,4,25,0.01
2013-7-25,88,80,76,77,74,71,97,84,66,29.90,29.79,14,3,25,0.14
2013-7-26,93,81,73,78,75,71,98,83,51,29.94,29.87,8,1,11,0.01
2013-7-27,93,79,72,77,74,71,98,85,51,29.93,29.81,9,1,14,0.02
2013-7-28,93,77,71,78,73,68,98,88,45,29.99,29.86,14,1,20,0.32
2013-7-29,92,78,71,77,74,70,98,89,54,30.08,29.96,5,0,18,0.24
2013-7-30,94,81,73,79,74,71,98,82,50,30.11,30.01,7,1,14,0.00
2013-7-31,92,80,73,79,74,70,98,84,56,30.06,29.93,8,1,17,0.00
2013-8-1,93,78,72,77,73,67,98,86,44,30.00,29.88,9,1,21,0.15
2013-8-2,92,80,72,78,73,68,98,82,51,29.96,29.87,8,1,12,0.01
2013-8-3,94,79,73,78,74,70,98,88,47,30.02,29.93,14,2,26,0.55
2013-8-4,91,80,74,78,75,73,98,87,59,30.01,29.91,11,2,19,0.09
2013-8-5,92,79,73,80,76,71,98,90,53,29.94,29.84,11,1,20,0.80
2013-8-6,92,80,72,79,75,71,98,85,57,29.91,29.83,5,0,11,0.01
2013-8-7,93,82,74,79,75,73,98,83,59,29.91,29.84,5,1,13,0.00
2013-8-8,94,82,74,78,74,71,98,80,53,29.98,29.88,7,1,17,0.00
2013-8-9,95,81,73,78,74,70,98,80,48,30.01,29.91,11,1,18,0.00
2013-8-10,96,82,71,78,73,69,98,77,46,30.06,29.97,7,1,14,0.00
2013-8-11,97,82,72,79,73,69,98,77,41,30.09,29.99,7,1,14,0.00
2013-8-12,96,82,72,76,72,67,98,77,47,30.06,29.93,6,1,12,0.00
2013-8-13,97,83,71,76,72,64,98,73,37,30.00,29.84,8,1,11,0.00
2013-8-14,94,79,74,78,74,72,98,86,50,29.94,29.82,9,1,14,0.12
2013-8-15,94,81,72,77,73,64,98,81,37,29.97,29.85,11,2,17,0.01
2013-8-16,93,80,74,77,74,66,98,84,44,30.00,29.88,17,2,29,0.19
2013-8-17,93,81,74,80,76,72,98,86,56,30.02,29.91,8,1,17,0.05
2013-8-18,91,82,74,80,75,72,98,83,59,30.03,29.94,9,1,17,0.01
2013-8-19,92,80,74,79,75,72,98,87,57,30.03,29.91,6,1,16,0.02
2013-8-20,95,82,73,78,74,69,98,79,46,30.03,29.93,8,1,18,0.00
2013-8-21,94,81,75,80,75,73,98,84,56,30.05,29.97,9,1,24,0.02
2013-8-22,91,78,75,79,76,73,98,92,63,30.03,29.93,7,1,13,0.03
2013-8-23,92,79,74,80,75,71,98,88,60,29.96,29.88,7,1,12,0.00
2013-8-24,92,77,73,78,74,72,98,91,55,30.05,29.93,10,1,22,1.31
2013-8-25,86,76,72,79,74,71,98,93,70,30.09,30.02,5,1,11,0.28
2013-8-26,91,79,72,78,74,71,98,86,59,30.08,29.95,7,1,17,0.01
2013-8-27,91,78,71,74,70,65,98,79,50,30.00,29.93,6,1,13,0.00
2013-8-28,92,78,68,74,68,65,98,77,43,29.99,29.91,6,1,11,0.00
2013-8-29,93,79,70,74,70,65,98,78,42,29.96,29.85,6,1,10,0.00
2013-8-30,95,80,72,76,73,69,98,81,45,29.92,29.81,14,1,21,0.00
2013-8-31,93,80,71,75,72,69,98,82,49,29.90,29.79,13,2,25,0.67
2013-9-1,92,78,70,76,72,69,98,86,52,29.94,29.82,25,2,36,0.86
2013-9-2,93,78,71,75,73,69,98,87,47,29.94,29.85,14,2,25,0.60
2013-9-3,92,80,71,76,72,65,98,80,45,29.95,29.85,9,2,14,0.00
2013-9-4,94,80,73,77,73,69,98,83,48,30.02,29.90,11,1,16,0.04
2013-9-5,94,80,71,79,74,70,98,86,51,30.04,29.93,5,0,10,0.01
2013-9-6,93,77,70,79,73,69,98,90,51,29.98,29.90,12,1,21,1.55
2013-9-7,90,76,71,78,73,70,98,91,56,29.95,29.86,11,1,17,0.73
2013-9-8,90,78,70,77,72,69,98,85,55,29.91,29.81,8,1,14,0.01
2013-9-9,92,78,70,75,71,66,98,81,48,29.97,29.86,5,1,14,0.00
2013-9-10,92,79,71,75,71,67,98,81,46,30.03,29.93,7,1,18,0.00
2013-9-11,91,79,72,76,72,68,98,81,53,30.02,29.93,7,1,16,0.01
2013-9-12,90,78,71,78,73,70,98,87,57,29.96,29.83,9,1,16,0.07
2013-9-13,92,78,70,75,72,68,98,83,49,29.84,29.72,11,1,14,0.01
2013-9-14,93,80,73,77,73,69,98,84,46,29.91,29.76,6,1,14,0.01
2013-9-15,92,79,74,78,74,71,98,87,56,30.01,29.90,8,1,17,0.00
2013-9-16,92,78,71,76,72,70,98,85,51,30.01,29.92,9,1,20,0.03
2013-9-17,91,78,71,76,72,70,98,84,54,29.99,29.90,7,1,16,0.00
2013-9-18,88,77,72,77,72,69,98,86,62,29.97,29.90,9,1,19,0.00
2013-9-19,91,77,70,75,71,68,98,86,51,29.99,29.91,6,1,14,0.08
2013-9-20,91,76,67,73,69,66,98,81,48,29.97,29.85,5,1,12,0.00
2013-9-21,91,77,67,72,69,65,98,78,44,29.88,29.69,6,1,10,0.00
2013-9-22,92,77,71,75,72,69,98,87,52,29.79,29.67,14,2,25,0.17
2013-9-23,87,75,73,78,73,71,98,95,70,29.90,29.78,9,1,13,1.65
2013-9-24,85,76,72,76,74,71,98,94,70,29.89,29.76,10,2,14,0.65
2013-9-25,81,77,73,74,72,69,98,85,70,29.78,29.71,13,3,21,0.01
2013-9-26,90,80,72,77,71,60,98,78,40,29.80,29.70,11,4,20,0.00
2013-9-27,81,74,69,73,70,68,98,91,71,29.89,29.78,10,2,18,0.02
2013-9-28,83,77,71,76,71,68,98,83,69,29.94,29.88,9,2,14,0.08
2013-9-29,88,75,68,72,69,64,98,82,45,29.93,29.84,8,1,16,0.00
2013-9-30,89,75,66,73,69,64,98,83,45,29.96,29.85,6,1,12,0.00
2013-10-1,90,76,69,74,70,68,98,84,54,30.00,29.91,6,1,14,0.00
2013-10-2,87,75,66,73,68,65,98,83,55,30.00,29.93,7,1,12,0.00
2013-10-3,91,76,66,74,69,65,98,81,46,30.01,29.92,5,1,11,0.00
2013-10-4,92,77,67,76,70,66,98,82,45,30.02,29.93,6,1,12,0.00
2013-10-5,90,76,67,77,70,66,98,84,49,29.99,29.90,7,1,12,0.01
2013-10-6,91,76,68,77,71,67,98,88,50,29.91,29.79,11,1,20,0.47
2013-10-7,83,75,70,76,72,69,98,92,72,29.81,29.68,12,2,24,0.28
2013-10-8,88,77,73,75,73,69,98,87,57,29.88,29.70,14,4,20,0.03
2013-10-9,80,72,66,71,68,64,94,86,66,29.97,29.85,11,5,18,0.00
2013-10-10,84,72,64,70,65,62,98,81,49,29.99,29.90,10,2,13,0.00
2013-10-11,86,71,60,69,63,59,98,79,42,29.98,29.87,9,1,13,0.00
2013-10-12,85,72,63,69,63,56,98,76,38,29.98,29.89,9,1,12,0.00
2013-10-13,86,72,61,68,62,55,98,76,38,30.02,29.92,6,1,11,0.00
2013-10-14,85,73,65,69,66,63,98,81,49,29.97,29.87,10,2,14,0.00
2013-10-15,80,72,67,71,68,66,98,90,70,29.93,29.82,6,1,10,0.00
2013-10-16,85,75,67,72,69,62,98,84,49,29.91,29.82,7,1,9,0.02
2013-10-17,89,75,66,73,68,65,98,83,49,29.92,29.82,6,1,9,0.00
2013-10-18,91,76,66,74,69,65,98,81,46,29.93,29.82,5,1,10,0.00
2013-10-19,90,77,68,74,70,66,98,81,48,29.89,29.79,9,1,13,0.00
2013-10-20,86,77,72,74,72,69,98,86,63,29.90,29.79,9,1,13,0.00
2013-10-21,92,77,69,77,72,68,98,85,52,29.93,29.82,8,1,12,0.57
2013-10-22,89,78,71,76,71,68,98,81,56,29.88,29.73,12,3,19,0.00
2013-10-23,82,74,65,70,62,49,96,69,36,29.94,29.73,10,2,16,0.01
2013-10-24,71,64,59,59,54,46,95,71,57,30.09,29.94,9,2,13,0.00
2013-10-25,79,65,56,58,54,47,97,73,37,30.17,30.08,10,2,14,0.00
2013-10-26,78,63,52,59,54,43,98,76,31,30.15,30.03,8,1,11,0.01
2013-10-27,79,62,52,60,54,50,98,78,41,30.08,29.99,9,1,13,0.00
2013-10-28,83,65,51,64,57,50,98,81,45,30.13,30.04,7,1,11,0.00
2013-10-29,85,69,57,68,62,56,98,82,51,30.16,30.08,8,1,17,0.00
2013-10-30,85,71,63,69,65,62,98,84,54,30.16,30.05,7,1,14,0.00
2013-10-31,86,73,62,70,65,61,98,81,46,30.07,29.92,9,1,17,0.01
2013-11-1,87,76,65,73,66,61,98,77,47,29.94,29.79,14,3,25,0.00
2013-11-2,75,68,60,72,66,59,98,93,84,29.90,29.74,10,2,18,0.27
2013-11-3,76,63,56,59,53,40,98,74,34,30.05,29.89,10,2,19,0.01
2013-11-4,80,67,61,65,60,55,94,78,47,30.11,30.03,9,2,22,0.01
2013-11-5,83,71,63,68,66,61,98,86,55,30.10,30.03,9,2,22,0.05
2013-11-6,80,70,64,72,66,63,98,89,64,30.06,29.98,5,1,11,0.01
2013-11-7,79,71,64,70,67,63,98,89,62,29.99,29.89,7,2,11,0.00
2013-11-8,78,67,59,66,62,56,98,85,65,30.06,29.92,13,3,24,0.00
2013-11-9,82,67,57,67,60,56,98,81,52,30.12,30.04,7,1,14,0.00
2013-11-10,82,69,59,66,63,58,98,84,52,30.11,30.02,8,1,12,0.00
2013-11-11,83,69,62,68,63,61,98,84,51,30.10,30.01,8,1,13,0.01
2013-11-12,78,68,60,68,63,59,98,86,62,30.05,29.94,6,1,10,0.00
2013-11-13,66,60,51,59,51,48,94,74,59,30.26,30.01,16,6,26,0.00
2013-11-14,78,61,49,59,53,48,98,78,41,30.25,30.12,7,1,17,0.00
2013-11-15,77,66,55,66,62,54,98,88,64,30.14,30.01,6,0,10,0.01
2013-11-16,75,70,66,73,68,65,98,97,89,30.07,29.97,5,1,10,0.15
2013-11-17,85,74,66,74,68,65,98,84,56,30.02,29.92,7,1,11,0.01
2013-11-18,84,74,68,71,68,66,98,83,60,29.96,29.84,8,1,14,0.00
2013-11-19,78,70,65,69,63,57,98,81,52,29.91,29.81,11,2,18,0.00
2013-11-20,81,71,64,71,67,62,98,88,67,30.05,29.90,6,1,17,0.11
2013-11-21,78,71,68,73,69,67,98,95,79,30.13,30.03,7,1,14,0.16
2013-11-22,80,71,65,73,67,64,98,90,68,30.14,30.05,6,1,14,0.02
2013-11-23,84,71,61,70,64,60,98,84,48,30.05,29.93,5,0,9,0.00
2013-11-24,70,64,60,66,58,52,98,82,69,30.18,29.96,13,4,27,0.00
2013-11-25,75,65,57,61,56,51,90,74,51,30.19,30.03,8,2,19,0.00
2013-11-26,82,73,65,72,68,61,98,86,65,30.03,29.68,14,3,27,0.09
2013-11-27,74,62,42,72,56,36,98,80,57,30.15,29.62,19,6,31,0.24
2013-11-28,64,50,37,52,42,31,89,76,58,30.28,30.14,11,4,18,0.00
2013-11-29,71,58,50,59,53,47,97,83,65,30.30,30.22,13,5,21,0.00
2013-11-30,76,64,57,65,60,54,98,87,60,30.25,30.13,10,4,16,0.01
2013-12-1,73,65,61,65,62,60,98,93,74,30.13,29.91,9,2,13,0.00
2013-12-2,72,63,57,61,58,52,98,86,54,29.91,29.75,11,2,19,0.00
2013-12-3,78,64,52,61,57,51,98,82,50,29.93,29.82,8,1,13,0.00
2013-12-4,80,67,57,67,62,56,98,84,50,30.02,29.91,9,1,16,0.00
2013-12-5,83,70,58,68,63,57,98,84,53,30.12,30.02,6,1,11,0.00
2013-12-6,84,72,62,72,66,61,98,86,56,30.12,30.02,11,1,16,0.00
2013-12-7,85,71,61,70,64,57,98,82,43,30.18,30.07,8,1,10,0.00
2013-12-8,85,70,59,72,64,58,98,85,49,30.17,30.04,7,1,16,0.00
2013-12-9,83,70,60,72,64,59,98,84,55,30.13,30.02,12,1,17,0.00
2013-12-10,83,71,59,70,64,58,98,79,49,30.13,29.99,11,3,20,0.01
2013-12-11,81,68,58,68,61,54,93,80,56,30.19,30.08,10,2,14,0.02
2013-12-12,68,60,50,60,49,32,98,71,30,30.26,30.13,12,4,19,0.00
2013-12-13,76,58,45,57,51,43,98,78,46,30.21,30.06,6,1,13,0.00
2013-12-14,81,68,57,71,64,54,98,86,63,30.06,29.87,11,2,19,0.00
2013-12-15,71,67,58,69,62,54,97,85,66,30.05,29.81,13,4,26,0.07
2013-12-16,63,53,41,55,46,39,96,78,51,30.17,30.04,10,3,14,0.00
2013-12-17,70,54,41,54,48,40,98,82,52,30.19,30.08,8,2,11,0.00
2013-12-18,68,51,39,47,42,38,98,77,37,30.23,30.13,11,2,17,0.00
2013-12-19,76,55,38,58,48,37,98,82,43,30.22,30.12,6,1,11,0.00
2013-12-20,83,63,47,66,56,46,98,81,45,30.15,30.04,7,1,12,0.00
2013-12-21,85,71,60,72,66,59,98,87,56,30.09,29.97,8,2,17,0.01
2013-12-22,88,74,64,76,68,63,98,84,54,30.08,30.00,14,2,26,0.01
2013-12-23,85,73,63,74,68,62,98,84,56,30.11,30.00,13,3,20,0.00
2013-12-24,72,63,50,71,53,27,98,74,26,30.20,30.02,14,4,20,0.00
2013-12-25,78,58,46,58,49,40,96,74,40,30.19,30.09,6,2,14,0.00
2013-12-26,78,63,56,63,59,55,98,87,56,30.16,30.03,12,2,16,0.00
2013-12-27,71,64,60,66,62,59,96,91,79,30.19,30.10,9,3,13,0.00
2013-12-28,76,70,65,74,68,64,98,96,82,30.16,29.95,7,1,14,0.19
2013-12-29,79,72,66,74,70,65,98,94,73,29.96,29.81,11,3,18,0.76
2013-12-30,68,61,55,65,58,53,98,91,66,30.14,29.91,8,1,11,0.01
2013-12-31,70,61,56,56,53,48,96,78,49,30.25,30.11,9,2,13,0.00
2014-1-1,66,62,58,65,60,55,98,95,87,30.19,30.00,6,2,11,0.04
2014-1-2,81,68,60,74,66,56,98,94,70,30.00,29.75,19,4,27,0.53